Time;durP1;ratioP1;P1;durP2;ratioP2;P2;SDS_P1;SDS_P2;PMS_P1;PMS_P2;Temp;Humidity;BMP_temperature;BMP_pressure;BME280_temperature;BME280_humidity;BME280_pressure;Samples;Min_cycle;Max_cycle;Signal;HPM_P1;HPM_P2
2022/06/06 00:00:42;;;;;;;0.00;0.00;;;17.80;99.90;;;;;;5057929;28;20048;-72
2022/06/06 00:03:08;;;;;;;0.00;0.00;;;17.80;99.90;;;;;;5073055;28;20441;-71
2022/06/06 00:05:36;;;;;;;0.00;0.00;;;17.80;99.90;;;;;;5066057;28;20059;-72
2022/06/06 00:08:04;;;;;;;0.00;0.00;;;17.80;99.90;;;;;;5056162;28;20025;-71
2022/06/06 00:10:30;;;;;;;0.00;0.00;;;17.80;99.90;;;;;;5073360;28;20103;-72
2022/06/06 00:12:56;;;;;;;0.00;0.00;;;17.90;99.90;;;;;;5073274;28;20093;-72
2022/06/06 00:15:22;;;;;;;0.00;0.00;;;18.00;99.90;;;;;;5073744;28;20032;-72
2022/06/06 00:17:48;;;;;;;0.00;0.00;;;18.10;99.90;;;;;;5063765;28;20024;-71
2022/06/06 00:20:16;;;;;;;0.10;0.10;;;18.60;99.90;;;;;;5064436;28;20031;-73
2022/06/06 00:22:42;;;;;;;0.00;0.00;;;18.50;99.90;;;;;;5062547;28;20035;-72
2022/06/06 00:25:10;;;;;;;0.00;0.00;;;18.90;99.90;;;;;;5063089;28;20024;-73
2022/06/06 00:27:36;;;;;;;0.00;0.00;;;19.20;99.90;;;;;;5062763;28;20462;-72
2022/06/06 00:30:03;;;;;;;0.00;0.00;;;19.30;99.90;;;;;;5061734;28;20036;-73
2022/06/06 00:35:16;;;;;;;0.00;0.00;;;19.40;99.90;;;;;;5065006;28;20052;-70
2022/06/06 00:37:42;;;;;;;0.05;0.05;;;19.70;99.90;;;;;;5073633;28;20033;-71
2022/06/06 00:40:10;;;;;;;0.00;0.00;;;19.90;99.90;;;;;;5073622;28;20070;-72
2022/06/06 00:42:39;;;;;;;0.00;0.00;;;20.10;99.90;;;;;;5072953;28;20025;-72
2022/06/06 00:45:23;;;;;;;0.32;0.32;;;20.30;99.90;;;;;;5073111;28;20040;-71
2022/06/06 00:48:11;;;;;;;0.70;0.43;;;20.40;99.90;;;;;;5073863;28;20045;-71
2022/06/06 00:50:40;;;;;;;0.10;0.10;;;20.50;99.90;;;;;;5073707;28;20051;-71
2022/06/06 00:53:09;;;;;;;0.00;0.00;;;20.50;99.90;;;;;;5073642;28;20460;-71
2022/06/06 00:55:48;;;;;;;0.00;0.00;;;20.30;99.90;;;;;;5073330;28;20032;-71
2022/06/06 00:58:18;;;;;;;0.00;0.00;;;20.60;99.90;;;;;;5062315;28;20024;-71
2022/06/06 01:00:46;;;;;;;0.00;0.00;;;20.80;99.90;;;;;;5064165;28;20027;-73
2022/06/06 01:03:15;;;;;;;0.00;0.00;;;20.70;99.90;;;;;;5071930;28;20536;-73
2022/06/06 01:05:46;;;;;;;0.00;0.00;;;20.70;99.90;;;;;;5073134;28;20087;-74
2022/06/06 01:08:15;;;;;;;0.00;0.00;;;21.00;99.90;;;;;;5070352;28;20020;-74
2022/06/06 01:10:41;;;;;;;0.00;0.00;;;21.40;99.90;;;;;;5064342;28;20070;-71
2022/06/06 01:13:09;;;;;;;0.00;0.00;;;21.60;99.90;;;;;;5063417;28;20265;-71
2022/06/06 01:16:04;;;;;;;0.20;0.20;;;21.60;98.70;;;;;;5071338;28;20484;-72
2022/06/06 01:18:50;;;;;;;0.03;0.00;;;21.00;99.90;;;;;;5071361;28;20035;-71
2022/06/06 01:21:37;;;;;;;0.00;0.00;;;20.90;96.80;;;;;;5058168;28;20021;-73
2022/06/06 01:24:21;;;;;;;0.00;0.00;;;21.10;99.90;;;;;;5069424;28;20066;-72
2022/06/06 01:27:24;;;;;;;0.00;0.00;;;20.90;99.90;;;;;;5072170;28;20540;-71
2022/06/06 01:29:58;;;;;;;0.00;0.00;;;21.40;94.80;;;;;;5052989;28;20029;-72
2022/06/06 01:32:27;;;;;;;0.00;0.00;;;22.10;90.30;;;;;;5065055;28;20036;-72
2022/06/06 01:34:54;;;;;;;0.43;0.43;;;22.60;90.10;;;;;;5065993;28;20039;-74
2022/06/06 01:37:35;;;;;;;0.00;0.00;;;23.00;81.70;;;;;;5065769;28;20032;-72
2022/06/06 01:40:04;;;;;;;0.00;0.00;;;23.70;73.10;;;;;;5068021;28;20020;-72
2022/06/06 01:42:53;;;;;;;0.00;0.00;;;24.00;66.50;;;;;;5069590;28;20029;-73
2022/06/06 01:45:35;;;;;;;0.00;0.00;;;24.80;67.00;;;;;;5067227;28;20044;-72
2022/06/06 01:48:06;;;;;;;4.03;1.20;;;25.50;60.50;;;;;;5064604;28;20115;-73
2022/06/06 01:50:35;;;;;;;0.00;0.00;;;26.00;58.20;;;;;;5061453;28;20060;-71
2022/06/06 01:53:05;;;;;;;0.45;0.30;;;26.50;54.40;;;;;;5063577;28;20024;-73
2022/06/06 01:55:33;;;;;;;0.10;0.10;;;27.40;51.50;;;;;;5067412;28;20400;-73
2022/06/06 01:58:06;;;;;;;0.10;0.10;;;27.80;49.00;;;;;;5062645;28;20035;-73
2022/06/06 02:00:34;;;;;;;15.32;3.00;;;27.90;48.80;;;;;;5067620;28;20026;-73
2022/06/06 02:03:00;;;;;;;0.00;0.00;;;27.60;48.00;;;;;;5067555;28;20021;-73
2022/06/06 02:05:27;;;;;;;0.00;0.00;;;26.80;49.70;;;;;;5067290;28;20028;-72
2022/06/06 02:07:54;;;;;;;0.00;0.00;;;26.70;50.00;;;;;;5065725;28;20017;-73
2022/06/06 02:10:21;;;;;;;0.00;0.00;;;26.60;50.50;;;;;;5068248;28;20062;-72
2022/06/06 02:12:48;;;;;;;0.00;0.00;;;26.30;51.50;;;;;;5069298;28;20032;-72
2022/06/06 02:15:17;;;;;;;2.05;1.38;;;26.10;52.20;;;;;;5072808;28;20470;-72
2022/06/06 02:17:43;;;;;;;0.60;0.38;;;25.80;53.00;;;;;;5072542;28;20384;-73
2022/06/06 02:20:12;;;;;;;0.10;0.10;;;25.70;55.10;;;;;;5073054;28;20061;-72
2022/06/06 02:22:39;;;;;;;0.10;0.10;;;25.20;56.80;;;;;;5072649;28;20380;-73
2022/06/06 02:25:07;;;;;;;0.00;0.00;;;24.80;58.10;;;;;;5072361;28;20016;-72
2022/06/06 02:27:35;;;;;;;0.00;0.00;;;24.60;59.00;;;;;;5072835;28;20016;-73
2022/06/06 02:30:03;;;;;;;0.00;0.00;;;24.80;56.70;;;;;;5071323;28;20036;-72
2022/06/06 02:32:29;;;;;;;0.00;0.00;;;25.60;55.50;;;;;;5072992;28;20036;-73
2022/06/06 02:34:55;;;;;;;0.00;0.00;;;26.30;54.70;;;;;;5073086;28;20029;-72
2022/06/06 02:37:21;;;;;;;0.00;0.00;;;26.30;54.00;;;;;;5068550;28;20025;-73
2022/06/06 02:39:47;;;;;;;0.00;0.00;;;25.20;56.00;;;;;;5053227;28;20035;-73
2022/06/06 02:42:14;;;;;;;0.10;0.10;;;25.00;58.60;;;;;;5070081;28;20039;-72
2022/06/06 02:44:39;;;;;;;0.00;0.00;;;26.00;57.50;;;;;;5070176;28;20380;-72
2022/06/06 02:47:06;;;;;;;0.30;0.30;;;27.20;53.90;;;;;;5066524;28;20023;-72
2022/06/06 02:49:33;;;;;;;0.00;0.00;;;28.10;49.60;;;;;;5071139;28;20395;-75
2022/06/06 02:52:04;;;;;;;0.00;0.00;;;29.30;46.20;;;;;;5061876;28;20105;-72
2022/06/06 02:54:31;;;;;;;0.05;0.05;;;29.40;45.00;;;;;;5063342;28;20587;-72
2022/06/06 02:56:58;;;;;;;0.00;0.00;;;30.00;44.20;;;;;;5060961;28;20093;-71
2022/06/06 02:59:26;;;;;;;0.10;0.10;;;30.30;42.70;;;;;;5062989;28;20036;-73
2022/06/06 03:01:52;;;;;;;0.00;0.00;;;30.50;41.80;;;;;;5059500;28;20480;-73
2022/06/06 03:04:19;;;;;;;0.00;0.00;;;30.60;41.90;;;;;;5064353;28;20252;-74
2022/06/06 03:07:14;;;;;;;0.00;0.00;;;30.60;42.00;;;;;;5063413;28;20020;-73
2022/06/06 03:10:12;;;;;;;0.55;0.40;;;31.20;40.90;;;;;;5058973;28;20020;-72
2022/06/06 03:12:59;;;;;;;1.40;1.17;;;29.90;41.70;;;;;;5028812;28;20441;-73
2022/06/06 03:22:08;;;;;;;0.03;0.03;;;27.60;43.10;;;;;;5068062;28;20579;-73
2022/06/06 03:24:58;;;;;;;4.78;2.10;;;27.60;44.80;;;;;;5046921;28;20450;-73
2022/06/06 03:27:30;;;;;;;0.45;0.25;;;28.50;45.00;;;;;;5065482;28;20028;-72
2022/06/06 03:30:07;;;;;;;0.03;0.03;;;29.10;43.90;;;;;;5065335;28;20020;-73
2022/06/06 03:33:04;;;;;;;0.00;0.00;;;29.50;44.00;;;;;;5065323;28;20044;-72
2022/06/06 03:35:42;;;;;;;0.60;0.43;;;29.60;42.90;;;;;;5067082;28;20029;-73
2022/06/06 03:38:34;;;;;;;3.83;3.42;;;29.10;43.40;;;;;;5065037;28;20032;-73
2022/06/06 03:41:09;;;;;;;0.55;0.35;;;29.30;43.10;;;;;;5064756;28;20086;-73
2022/06/06 03:43:55;;;;;;;32.10;22.85;;;29.60;43.60;;;;;;5064405;28;20693;-73
2022/06/06 03:46:52;;;;;;;0.00;0.00;;;29.20;44.10;;;;;;5064949;28;20060;-73
2022/06/06 03:49:50;;;;;;;1.00;1.00;;;29.00;44.00;;;;;;5063828;28;20024;-74
2022/06/06 03:52:42;;;;;;;0.60;0.60;;;29.60;43.40;;;;;;5065568;28;20020;-74
2022/06/06 03:55:27;;;;;;;1.42;1.38;;;28.40;45.00;;;;;;5064852;28;20123;-74
2022/06/06 03:57:56;;;;;;;0.00;0.00;;;28.30;46.00;;;;;;5063758;28;20036;-73
2022/06/06 04:00:23;;;;;;;0.00;0.00;;;28.20;46.30;;;;;;5068810;28;20458;-74
2022/06/06 04:02:50;;;;;;;0.00;0.00;;;28.20;46.10;;;;;;5063294;28;20064;-73
2022/06/06 04:05:19;;;;;;;0.00;0.00;;;27.60;46.70;;;;;;5066921;28;20025;-74
2022/06/06 04:07:46;;;;;;;2.35;2.22;;;26.80;48.50;;;;;;5059767;28;20031;-73
2022/06/06 04:10:13;;;;;;;0.00;0.00;;;26.90;47.20;;;;;;5059656;28;20116;-74
2022/06/06 04:13:14;;;;;;;0.95;0.95;;;27.20;46.40;;;;;;5062032;28;20119;-74
2022/06/06 04:16:22;;;;;;;0.30;0.30;;;27.40;47.20;;;;;;5065579;28;20031;-73
2022/06/06 04:19:09;;;;;;;0.65;0.47;;;26.90;48.80;;;;;;5062487;28;20203;-73
2022/06/06 04:21:47;;;;;;;1.27;0.73;;;26.70;48.20;;;;;;5060387;28;20060;-73
2022/06/06 04:24:22;;;;;;;1.45;1.45;;;26.70;47.10;;;;;;5065163;28;20024;-74
2022/06/06 04:27:14;;;;;;;0.00;0.00;;;26.90;45.90;;;;;;5064790;28;20027;-73
2022/06/06 04:30:01;;;;;;;0.00;0.00;;;26.70;46.60;;;;;;5064074;28;20028;-74
2022/06/06 04:32:56;;;;;;;1.63;1.55;;;26.60;46.50;;;;;;5064045;28;20521;-74
2022/06/06 04:35:22;;;;;;;0.05;0.05;;;26.40;46.80;;;;;;5024132;28;20049;-73
2022/06/06 04:37:48;;;;;;;0.32;0.32;;;26.90;45.90;;;;;;5060973;28;20033;-72
2022/06/06 04:40:55;;;;;;;0.45;0.45;;;27.20;45.90;;;;;;5059478;28;20117;-73
2022/06/06 04:43:27;;;;;;;0.17;0.17;;;26.80;45.30;;;;;;5048345;28;20110;-72
2022/06/06 04:46:04;;;;;;;0.13;0.10;;;26.90;46.30;;;;;;5060131;28;20025;-75
2022/06/06 04:48:34;;;;;;;0.00;0.00;;;26.90;47.70;;;;;;5061297;28;20025;-73
2022/06/06 04:51:01;;;;;;;0.73;0.73;;;26.80;46.70;;;;;;5060111;28;21429;-74
2022/06/06 04:53:30;;;;;;;0.00;0.00;;;27.20;46.10;;;;;;5064063;28;20418;-73
2022/06/06 04:55:57;;;;;;;0.73;0.40;;;27.40;45.10;;;;;;5063687;28;20418;-74
2022/06/06 04:58:27;;;;;;;0.00;0.00;;;27.40;45.70;;;;;;5063719;28;20025;-74
2022/06/06 05:00:54;;;;;;;0.43;0.43;;;27.60;46.40;;;;;;5060677;28;20033;-73
2022/06/06 05:03:20;;;;;;;0.20;0.20;;;27.30;46.40;;;;;;5065160;28;20114;-74
2022/06/06 05:06:17;;;;;;;0.70;0.45;;;26.90;46.90;;;;;;5060341;28;20119;-74
2022/06/06 05:09:07;;;;;;;2.55;2.45;;;27.10;47.00;;;;;;5061980;28;20402;-73
2022/06/06 05:11:52;;;;;;;0.00;0.00;;;27.10;47.50;;;;;;5060114;28;20047;-74
2022/06/06 05:14:31;;;;;;;0.00;0.00;;;27.20;47.00;;;;;;5061521;28;20059;-72
2022/06/06 05:17:34;;;;;;;0.40;0.40;;;27.50;46.70;;;;;;5062747;28;20025;-73
2022/06/06 05:20:12;;;;;;;0.10;0.10;;;27.70;46.20;;;;;;5064493;28;20469;-74
2022/06/06 05:22:49;;;;;;;42.10;9.43;;;27.90;44.70;;;;;;5064052;28;20044;-74
2022/06/06 05:25:41;;;;;;;4.18;3.95;;;28.00;44.40;;;;;;5064703;28;20107;-73
2022/06/06 05:28:22;;;;;;;0.00;0.00;;;27.50;43.20;;;;;;5067327;28;20056;-74
2022/06/06 05:31:25;;;;;;;0.10;0.10;;;27.40;45.50;;;;;;5065820;28;20053;-73
2022/06/06 05:34:14;;;;;;;1.77;1.02;;;27.30;45.00;;;;;;5043763;28;20021;-73
2022/06/06 05:36:50;;;;;;;0.10;0.10;;;27.60;44.20;;;;;;5062948;28;20048;-74
2022/06/06 05:39:29;;;;;;;0.00;0.00;;;27.60;43.00;;;;;;5063979;28;20020;-74
2022/06/06 05:42:29;;;;;;;10.68;9.95;;;27.50;43.60;;;;;;5061862;28;21307;-73
2022/06/06 05:45:16;;;;;;;0.00;0.00;;;27.50;42.00;;;;;;5063422;28;20016;-73
2022/06/06 05:47:54;;;;;;;0.00;0.00;;;27.90;41.90;;;;;;5066533;28;20369;-73
2022/06/06 05:50:20;;;;;;;0.75;0.43;;;27.90;41.10;;;;;;5064430;28;20021;-73
2022/06/06 05:52:55;;;;;;;1.20;1.20;;;27.90;41.80;;;;;;5049925;28;20078;-73
2022/06/06 05:55:46;;;;;;;2.10;2.00;;;27.90;41.40;;;;;;5071665;28;20534;-73
2022/06/06 05:58:35;;;;;;;0.82;0.80;;;27.50;41.60;;;;;;5067199;28;20635;-72
2022/06/06 06:01:10;;;;;;;0.55;0.47;;;27.40;42.90;;;;;;5063891;28;20021;-73
2022/06/06 06:03:55;;;;;;;0.10;0.10;;;27.50;42.70;;;;;;5061429;28;20036;-72
2022/06/06 06:06:40;;;;;;;0.10;0.10;;;27.70;41.60;;;;;;5065076;28;20017;-74
2022/06/06 06:09:19;;;;;;;0.00;0.00;;;27.90;42.40;;;;;;5061681;28;20171;-72
2022/06/06 06:11:51;;;;;;;0.00;0.00;;;28.00;44.10;;;;;;5062133;28;20048;-74
2022/06/06 06:14:53;;;;;;;0.08;0.00;;;28.10;43.80;;;;;;5065407;28;20036;-74
2022/06/06 06:17:23;;;;;;;0.00;0.00;;;27.70;43.70;;;;;;5063362;28;20020;-74
2022/06/06 06:20:09;;;;;;;0.40;0.40;;;27.60;44.00;;;;;;5062040;28;20529;-74
2022/06/06 06:22:43;;;;;;;0.10;0.10;;;27.40;43.30;;;;;;5057578;28;20036;-74
2022/06/06 06:25:10;;;;;;;0.00;0.00;;;27.50;44.20;;;;;;5064230;28;20020;-75
2022/06/06 06:27:38;;;;;;;0.00;0.00;;;27.70;43.80;;;;;;5063168;28;20028;-74
2022/06/06 06:30:07;;;;;;;0.00;0.00;;;27.60;43.10;;;;;;5061012;28;21099;-74
2022/06/06 06:32:50;;;;;;;0.00;0.00;;;27.60;43.50;;;;;;5058100;28;20025;-74
2022/06/06 06:35:20;;;;;;;0.90;0.55;;;27.80;43.00;;;;;;5062924;28;20398;-74
2022/06/06 06:37:55;;;;;;;0.00;0.00;;;27.60;42.40;;;;;;5062659;28;20071;-74
2022/06/06 06:40:41;;;;;;;0.00;0.00;;;27.70;43.40;;;;;;5066705;28;20064;-74
2022/06/06 06:43:55;;;;;;;0.00;0.00;;;28.00;42.80;;;;;;5066560;28;20020;-74
2022/06/06 06:46:29;;;;;;;0.00;0.00;;;28.30;41.90;;;;;;4970620;28;20204;-75
2022/06/06 06:49:21;;;;;;;0.00;0.00;;;28.20;41.60;;;;;;4967447;28;20156;-72
2022/06/06 06:51:50;;;;;;;0.10;0.10;;;28.10;41.80;;;;;;5041573;28;20087;-74
2022/06/06 06:54:45;;;;;;;0.45;0.40;;;27.90;41.10;;;;;;5051557;28;20025;-74
2022/06/06 06:57:39;;;;;;;0.40;0.40;;;28.20;41.50;;;;;;5069139;28;20119;-74
2022/06/06 07:00:20;;;;;;;0.08;0.08;;;28.30;41.00;;;;;;5063030;28;20135;-74
2022/06/06 07:09:08;;;;;;;0.00;0.00;;;29.00;38.50;;;;;;5066767;28;20064;-74
2022/06/06 07:12:12;;;;;;;0.00;0.00;;;29.00;38.10;;;;;;5063224;28;20020;-74
2022/06/06 07:14:50;;;;;;;0.05;0.05;;;28.70;39.00;;;;;;5002001;28;20041;-74
2022/06/06 07:17:20;;;;;;;0.00;0.00;;;29.00;37.50;;;;;;5057201;28;20052;-74
2022/06/06 07:19:51;;;;;;;0.30;0.30;;;29.00;37.20;;;;;;5062321;28;20037;-73
2022/06/06 07:22:19;;;;;;;0.75;0.75;;;28.80;38.50;;;;;;5060921;28;20028;-72
2022/06/06 07:24:55;;;;;;;0.00;0.00;;;28.90;38.60;;;;;;5064723;28;20035;-73
2022/06/06 07:27:21;;;;;;;0.00;0.00;;;29.00;38.40;;;;;;5064103;28;20033;-74
2022/06/06 07:29:47;;;;;;;0.00;0.00;;;28.70;37.20;;;;;;5066148;28;20429;-73
2022/06/06 07:32:23;;;;;;;1.75;1.65;;;28.80;38.30;;;;;;5063228;28;20032;-73
2022/06/06 07:34:52;;;;;;;0.00;0.00;;;29.20;38.10;;;;;;5066082;28;20028;-73
2022/06/06 07:37:56;;;;;;;0.00;0.00;;;29.20;38.10;;;;;;5055216;28;20033;-73
2022/06/06 07:40:36;;;;;;;0.00;0.00;;;29.00;36.70;;;;;;5067340;28;20470;-73
2022/06/06 07:43:17;;;;;;;0.40;0.20;;;29.10;37.60;;;;;;5065337;28;20372;-74
2022/06/06 07:45:53;;;;;;;0.28;0.17;;;29.10;38.30;;;;;;5061680;28;20103;-74
2022/06/06 07:48:50;;;;;;;0.00;0.00;;;29.00;37.90;;;;;;5044352;28;20029;-74
2022/06/06 07:51:22;;;;;;;0.43;0.30;;;28.90;38.00;;;;;;5060142;28;20135;-74
2022/06/06 07:54:32;;;;;;;0.13;0.13;;;28.90;37.50;;;;;;5051457;28;20853;-73
2022/06/06 07:57:35;;;;;;;8.15;7.60;;;28.40;36.90;;;;;;5063542;28;20098;-74
2022/06/06 08:00:17;;;;;;;0.22;0.22;;;28.70;37.10;;;;;;5058626;28;20025;-74
2022/06/06 08:02:56;;;;;;;0.25;0.20;;;29.00;38.20;;;;;;5058111;28;20295;-75
2022/06/06 08:05:48;;;;;;;0.63;0.63;;;29.00;37.60;;;;;;5059051;28;20036;-74
2022/06/06 08:08:17;;;;;;;22.13;1.75;;;29.00;37.50;;;;;;5060147;28;20021;-72
2022/06/06 08:10:44;;;;;;;0.00;0.00;;;29.00;37.10;;;;;;5058340;28;20036;-74
2022/06/06 08:13:16;;;;;;;0.10;0.10;;;29.00;36.60;;;;;;5059065;28;20404;-74
2022/06/06 08:16:09;;;;;;;0.00;0.00;;;28.80;36.90;;;;;;5062702;28;20035;-74
2022/06/06 08:19:08;;;;;;;1.75;1.65;;;29.30;37.20;;;;;;5063440;28;20115;-74
2022/06/06 08:21:47;;;;;;;0.15;0.13;;;29.60;37.20;;;;;;5060620;28;20484;-75
2022/06/06 08:24:24;;;;;;;0.00;0.00;;;29.70;36.10;;;;;;5061386;28;20035;-75
2022/06/06 08:26:52;;;;;;;0.00;0.00;;;29.90;36.60;;;;;;5062197;28;20016;-74
2022/06/06 08:29:18;;;;;;;0.00;0.00;;;30.00;35.80;;;;;;5060281;28;20025;-74
2022/06/06 08:31:45;;;;;;;0.00;0.00;;;30.30;35.40;;;;;;5061213;28;20049;-73
2022/06/06 08:34:12;;;;;;;0.00;0.00;;;30.60;35.10;;;;;;5060734;28;20025;-73
2022/06/06 08:36:44;;;;;;;0.00;0.00;;;30.50;34.70;;;;;;5059627;28;20036;-75
2022/06/06 08:39:35;;;;;;;1.20;0.75;;;30.20;34.60;;;;;;5058971;28;20028;-76
2022/06/06 08:42:37;;;;;;;0.00;0.00;;;29.60;34.70;;;;;;5059480;28;20032;-73
2022/06/06 08:45:33;;;;;;;0.00;0.00;;;29.80;34.60;;;;;;5038426;28;20446;-74
2022/06/06 08:48:30;;;;;;;0.20;0.20;;;30.10;33.70;;;;;;5059076;28;20020;-74
2022/06/06 08:51:02;;;;;;;0.00;0.00;;;29.90;32.90;;;;;;5060933;28;20031;-75
2022/06/06 08:53:52;;;;;;;1.25;1.25;;;29.60;32.90;;;;;;5065170;28;20036;-73
2022/06/06 08:56:44;;;;;;;0.10;0.10;;;29.70;34.20;;;;;;5061320;28;20575;-73
2022/06/06 08:59:45;;;;;;;11.68;0.30;;;29.50;33.50;;;;;;5061018;28;20025;-74
2022/06/06 09:02:40;;;;;;;0.20;0.13;;;29.40;34.90;;;;;;5059877;28;20036;-75
2022/06/06 09:05:40;;;;;;;0.10;0.10;;;29.20;34.60;;;;;;5036714;28;20040;-74
2022/06/06 09:08:31;;;;;;;0.00;0.00;;;29.70;34.60;;;;;;5060173;28;20461;-73
2022/06/06 09:11:41;;;;;;;0.20;0.20;;;29.70;34.70;;;;;;5057943;28;20170;-72
2022/06/06 09:14:31;;;;;;;1.55;0.20;;;30.00;34.30;;;;;;5054400;28;21377;-74
2022/06/06 09:17:09;;;;;;;0.00;0.00;;;29.90;33.60;;;;;;5064164;28;20024;-74
2022/06/06 09:19:53;;;;;;;0.00;0.00;;;30.30;33.30;;;;;;5043493;28;20032;-74
2022/06/06 09:22:53;;;;;;;0.03;0.00;;;30.50;32.20;;;;;;5060982;28;20039;-74
2022/06/06 09:25:59;;;;;;;0.52;0.13;;;30.20;33.10;;;;;;5024664;28;20052;-74
2022/06/06 09:28:59;;;;;;;0.00;0.00;;;29.90;32.40;;;;;;5060523;28;20074;-74
2022/06/06 09:31:57;;;;;;;0.00;0.00;;;30.20;33.50;;;;;;5059315;28;20209;-72
2022/06/06 09:34:33;;;;;;;0.00;0.00;;;30.50;33.80;;;;;;5059229;28;20029;-74
2022/06/06 09:37:11;;;;;;;5.90;0.85;;;30.80;33.60;;;;;;5054999;28;20189;-74
2022/06/06 09:40:10;;;;;;;0.43;0.43;;;31.00;33.30;;;;;;5056107;28;20080;-73
2022/06/06 09:43:13;;;;;;;0.00;0.00;;;30.40;33.80;;;;;;5059082;28;20060;-74
2022/06/06 09:45:39;;;;;;;0.47;0.47;;;30.20;33.30;;;;;;5038783;28;20552;-73
2022/06/06 09:48:26;;;;;;;0.20;0.20;;;29.80;34.70;;;;;;5061345;28;20035;-73
2022/06/06 09:51:27;;;;;;;0.00;0.00;;;29.90;35.50;;;;;;5044191;28;20029;-74
2022/06/06 10:00:21;;;;;;;0.00;0.00;;;30.30;35.70;;;;;;5059593;28;20540;-74
2022/06/06 10:03:17;;;;;;;0.60;0.38;;;29.60;35.30;;;;;;5061141;28;20035;-73
2022/06/06 10:06:25;;;;;;;0.70;0.70;;;29.40;36.30;;;;;;5026394;28;20073;-73
2022/06/06 10:09:31;;;;;;;0.00;0.00;;;29.30;35.90;;;;;;5058956;28;20450;-74
2022/06/06 10:12:12;;;;;;;0.10;0.10;;;29.60;36.50;;;;;;5061138;28;20059;-73
2022/06/06 10:14:53;;;;;;;0.10;0.10;;;29.80;36.70;;;;;;5062357;28;20036;-73
2022/06/06 10:17:45;;;;;;;0.00;0.00;;;29.40;37.10;;;;;;5068095;28;20031;-73
2022/06/06 10:20:26;;;;;;;0.00;0.00;;;29.00;37.10;;;;;;5063423;28;20032;-73
2022/06/06 10:23:24;;;;;;;0.30;0.25;;;29.30;38.30;;;;;;5057683;28;20460;-73
2022/06/06 10:26:12;;;;;;;0.00;0.00;;;29.40;37.60;;;;;;5060856;28;20097;-73
2022/06/06 10:28:55;;;;;;;0.85;0.85;;;29.40;37.40;;;;;;5062084;28;20028;-73
2022/06/06 10:31:49;;;;;;;0.00;0.00;;;29.50;36.60;;;;;;5062320;28;20048;-73
2022/06/06 10:34:33;;;;;;;0.00;0.00;;;29.50;36.30;;;;;;5060211;28;20038;-74
2022/06/06 10:37:26;;;;;;;0.00;0.00;;;29.90;36.20;;;;;;5064855;28;20033;-73
2022/06/06 10:40:05;;;;;;;0.00;0.00;;;29.90;35.20;;;;;;5072378;28;20021;-74
2022/06/06 10:42:50;;;;;;;0.00;0.00;;;29.90;35.10;;;;;;5070105;28;20020;-73
2022/06/06 10:45:20;;;;;;;0.10;0.10;;;30.00;36.10;;;;;;5071535;28;20439;-73
2022/06/06 10:48:02;;;;;;;0.00;0.00;;;30.20;36.30;;;;;;5068791;28;20052;-74
2022/06/06 10:54:27;;;;;;;0.00;0.00;;;29.70;36.00;;;;;;5067338;28;20389;-74
2022/06/06 10:57:13;;;;;;;0.10;0.10;;;29.50;36.10;;;;;;5070876;28;20052;-74
2022/06/06 11:00:04;;;;;;;0.00;0.00;;;29.60;37.20;;;;;;5060556;28;20051;-74
2022/06/06 11:03:00;;;;;;;0.25;0.25;;;29.60;37.80;;;;;;5064095;28;20684;-74
2022/06/06 11:06:05;;;;;;;0.00;0.00;;;29.90;38.40;;;;;;5063600;28;20017;-74
2022/06/06 11:09:08;;;;;;;0.10;0.10;;;29.70;37.60;;;;;;5061909;28;20029;-74
2022/06/06 11:11:46;;;;;;;0.05;0.05;;;29.70;38.10;;;;;;5063954;28;20071;-75
2022/06/06 11:14:30;;;;;;;0.00;0.00;;;29.80;36.40;;;;;;5065230;28;20431;-73
2022/06/06 11:17:18;;;;;;;0.10;0.10;;;29.80;36.80;;;;;;5067661;28;20078;-74
2022/06/06 11:20:08;;;;;;;0.45;0.45;;;30.00;36.60;;;;;;5067102;28;20035;-75
2022/06/06 11:22:37;;;;;;;0.00;0.00;;;30.10;37.30;;;;;;5067924;28;20114;-74
2022/06/06 11:25:11;;;;;;;0.63;0.30;;;30.00;37.20;;;;;;5065141;28;20025;-73
2022/06/06 11:27:59;;;;;;;0.00;0.00;;;30.00;37.50;;;;;;5067965;28;20013;-73
2022/06/06 11:30:59;;;;;;;0.00;0.00;;;30.00;37.80;;;;;;5065797;28;20373;-72
2022/06/06 11:33:35;;;;;;;0.00;0.00;;;30.10;38.80;;;;;;5029372;28;20189;-73
2022/06/06 11:36:28;;;;;;;0.85;0.82;;;30.00;39.30;;;;;;5065046;28;20040;-74
2022/06/06 11:39:12;;;;;;;0.20;0.10;;;29.90;39.90;;;;;;5051283;28;20377;-74
2022/06/06 11:42:01;;;;;;;0.30;0.10;;;29.90;37.40;;;;;;5063123;28;20380;-74
2022/06/06 11:44:45;;;;;;;0.00;0.00;;;29.50;38.30;;;;;;5061367;28;20040;-72
2022/06/06 11:47:25;;;;;;;0.15;0.15;;;29.30;38.80;;;;;;5064205;28;20044;-74
2022/06/06 11:50:20;;;;;;;0.00;0.00;;;28.90;40.50;;;;;;5060860;28;20483;-74
2022/06/06 11:53:04;;;;;;;0.00;0.00;;;28.80;41.50;;;;;;5063978;28;20029;-74
2022/06/06 11:55:48;;;;;;;0.00;0.00;;;28.70;42.20;;;;;;5063789;28;20037;-75
2022/06/06 11:58:33;;;;;;;0.15;0.15;;;29.00;41.60;;;;;;5063839;28;20044;-74
2022/06/06 12:01:36;;;;;;;0.00;0.00;;;29.00;42.20;;;;;;5066444;28;20105;-74
2022/06/06 12:04:30;;;;;;;0.00;0.00;;;28.80;42.90;;;;;;5061332;28;20080;-74
2022/06/06 12:07:34;;;;;;;0.00;0.00;;;28.80;42.30;;;;;;5063093;28;20024;-73
2022/06/06 12:10:04;;;;;;;0.00;0.00;;;28.80;42.50;;;;;;5064420;28;20032;-74
2022/06/06 12:12:57;;;;;;;0.10;0.10;;;28.70;43.30;;;;;;5067412;28;20086;-75
2022/06/06 12:15:39;;;;;;;0.10;0.10;;;28.90;42.50;;;;;;5058676;28;20024;-76
2022/06/06 12:18:33;;;;;;;0.10;0.10;;;28.90;42.40;;;;;;5060528;28;20071;-76
2022/06/06 12:21:23;;;;;;;0.15;0.15;;;29.00;41.40;;;;;;5065207;28;20552;-75
2022/06/06 12:23:59;;;;;;;0.00;0.00;;;29.20;41.80;;;;;;5064135;28;20084;-74
2022/06/06 12:27:10;;;;;;;0.00;0.00;;;28.90;44.20;;;;;;5063780;28;20111;-74
2022/06/06 12:29:57;;;;;;;0.00;0.00;;;28.80;42.40;;;;;;5065350;28;20100;-73
2022/06/06 12:32:38;;;;;;;0.00;0.00;;;28.40;43.50;;;;;;5030130;28;20033;-74
2022/06/06 12:35:26;;;;;;;0.20;0.20;;;28.50;42.40;;;;;;5025233;28;20022;-74
2022/06/06 12:38:13;;;;;;;0.45;0.20;;;28.20;41.30;;;;;;5027832;28;20033;-75
2022/06/06 12:40:51;;;;;;;0.00;0.00;;;27.80;39.00;;;;;;5028112;28;20083;-76
2022/06/06 12:43:56;;;;;;;0.00;0.00;;;27.70;38.50;;;;;;5026141;28;20387;-73
2022/06/06 12:46:24;;;;;;;0.80;0.73;;;27.80;37.00;;;;;;5026688;28;20543;-73
2022/06/06 12:49:13;;;;;;;0.00;0.00;;;27.40;36.40;;;;;;5028832;28;20021;-74
2022/06/06 12:52:18;;;;;;;0.00;0.00;;;27.60;36.10;;;;;;5028269;28;20141;-72
2022/06/06 12:57:59;;;;;;;0.00;0.00;;;27.30;35.70;;;;;;5028941;28;20095;-74
2022/06/06 13:03:39;;;;;;;0.00;0.00;;;27.20;35.70;;;;;;5028050;28;20067;-76
2022/06/06 13:06:36;;;;;;;0.00;0.00;;;27.30;35.40;;;;;;5024270;28;20022;-74
2022/06/06 13:09:13;;;;;;;0.00;0.00;;;27.30;35.40;;;;;;5024924;28;20048;-72
2022/06/06 13:12:09;;;;;;;0.00;0.00;;;27.30;35.30;;;;;;5023818;28;20377;-73
2022/06/06 13:15:06;;;;;;;0.00;0.00;;;27.20;35.70;;;;;;5015180;28;20038;-74
2022/06/06 13:17:54;;;;;;;0.00;0.00;;;27.10;35.60;;;;;;5025250;28;20030;-74
2022/06/06 13:20:39;;;;;;;0.00;0.00;;;27.10;35.50;;;;;;5025973;28;20072;-72
2022/06/06 13:23:22;;;;;;;0.00;0.00;;;26.90;35.70;;;;;;5031446;28;20145;-72
2022/06/06 13:26:11;;;;;;;0.65;0.65;;;27.00;36.10;;;;;;5028892;28;20051;-74
2022/06/06 13:28:55;;;;;;;0.00;0.00;;;26.80;36.60;;;;;;5031208;28;20344;-74
2022/06/06 13:31:51;;;;;;;0.00;0.00;;;26.70;36.60;;;;;;5055420;28;20056;-74
2022/06/06 13:34:32;;;;;;;0.98;0.35;;;26.60;36.80;;;;;;5070211;28;20028;-72
2022/06/06 13:37:47;;;;;;;0.30;0.20;;;26.50;37.40;;;;;;5071062;28;20099;-73
2022/06/06 13:40:23;;;;;;;0.25;0.25;;;26.30;37.80;;;;;;5041015;28;20041;-72
2022/06/06 13:43:06;;;;;;;0.00;0.00;;;26.10;38.20;;;;;;5062457;28;20017;-72
2022/06/06 13:45:57;;;;;;;0.00;0.00;;;25.90;38.90;;;;;;5060655;28;20515;-74
2022/06/06 13:48:44;;;;;;;0.52;0.17;;;25.90;39.30;;;;;;5070850;28;20024;-73
2022/06/06 13:51:29;;;;;;;0.00;0.00;;;26.00;39.30;;;;;;5069758;28;20032;-72
2022/06/06 13:53:58;;;;;;;0.30;0.30;;;25.90;39.60;;;;;;5068199;28;20411;-74
2022/06/06 13:57:16;;;;;;;0.00;0.00;;;25.60;39.70;;;;;;5047302;28;20446;-73
2022/06/06 14:00:05;;;;;;;0.00;0.00;;;25.60;39.50;;;;;;5029255;28;20078;-72
2022/06/06 14:02:45;;;;;;;0.00;0.00;;;25.60;40.10;;;;;;5069516;28;20028;-75
2022/06/06 14:05:44;;;;;;;0.00;0.00;;;25.40;40.00;;;;;;5059604;28;20028;-74
2022/06/06 14:08:16;;;;;;;0.00;0.00;;;25.30;40.10;;;;;;5065400;28;20150;-74
2022/06/06 14:10:54;;;;;;;0.10;0.10;;;25.40;39.90;;;;;;5066704;28;20028;-73
2022/06/06 14:13:50;;;;;;;0.00;0.00;;;25.40;40.00;;;;;;5065749;28;20036;-73
2022/06/06 14:16:34;;;;;;;0.00;0.00;;;25.50;39.40;;;;;;5068619;28;20032;-74
2022/06/06 14:19:27;;;;;;;0.00;0.00;;;25.50;39.60;;;;;;5071286;28;20771;-73
2022/06/06 14:21:56;;;;;;;0.00;0.00;;;25.60;39.50;;;;;;5064417;28;20472;-72
2022/06/06 14:24:28;;;;;;;0.00;0.00;;;25.60;39.20;;;;;;5067596;28;20024;-72
2022/06/06 14:27:02;;;;;;;1.10;0.40;;;25.30;40.40;;;;;;5070313;28;20089;-73
2022/06/06 14:29:34;;;;;;;0.00;0.00;;;25.20;39.80;;;;;;5067697;28;20051;-74